Terminal Aerodrome Forecast
Issued by NWS

Home | Current Version | Previous Version | Text Only | Print | Product List | Glossary On
Versions: 1 2 3 4 5 6 7 8 9 10 11 12 13 14 15 16 17
000
FTAK31 PAJN 281100
TAFAPG
TAF
PAPG 281128Z 2812/2912 21008G18KT 6SM -SHRA BR SCT020 OVC040
     FM281500 18008KT 6SM -SHRA BR BKN025 OVC050
     FM281800 14006KT 4SM -SHRA BR OVC015
     FM290000 VRB04KT 5SM -SHRA BR SCT015 OVC025
     FM290400 VRB03KT P6SM -SHRA BKN025 OVC050
     FM290800 00000KT P6SM -SHRA SCT025 OVC050
      AMD LTD TO CLD VIS AND WIND 2812/2815=

USA.gov is the U.S. government's official web portal to all federal, state and local government web resources and services.